createdAt,value
2023-04-09T00:00:20.802Z,32.15
2023-04-09T00:02:48.392Z,32.83
2023-04-09T00:05:15.797Z,31.33
2023-04-09T00:07:44.504Z,33.78
2023-04-09T00:10:11.951Z,33.10
2023-04-09T00:12:40.344Z,35.22
2023-04-09T00:15:11.054Z,35.28
2023-04-09T00:17:40.251Z,33.78
2023-04-09T00:20:08.346Z,34.30
2023-04-09T00:22:35.426Z,34.92
2023-04-09T00:25:02.583Z,34.03
2023-04-09T00:27:29.667Z,33.15
2023-04-09T00:29:59.821Z,32.78
2023-04-09T00:32:26.943Z,33.15
2023-04-09T00:34:54.023Z,33.05
2023-04-09T00:37:21.181Z,31.10
2023-04-09T00:39:48.398Z,30.88
2023-04-09T00:42:16.554Z,31.30
2023-04-09T00:44:43.597Z,29.35
2023-04-09T00:47:10.826Z,32.08
2023-04-09T00:49:37.896Z,31.30
2023-04-09T00:52:05.220Z,31.33
2023-04-09T00:54:33.260Z,31.40
2023-04-09T00:57:02.743Z,31.85
2023-04-09T00:59:30.291Z,33.47
2023-04-09T01:01:57.677Z,32.58
2023-04-09T01:04:26.085Z,32.70
2023-04-09T01:07:02.249Z,29.45
2023-04-09T01:09:39.638Z,30.73
2023-04-09T01:12:34.264Z,30.23
2023-04-09T01:15:13.859Z,32.00
2023-04-09T01:18:06.804Z,31.08
2023-04-09T01:20:43.524Z,30.58
2023-04-09T01:23:18.604Z,29.38
2023-04-09T01:26:10.775Z,28.85
2023-04-09T01:28:50.849Z,29.50
2023-04-09T01:31:29.654Z,27.48
2023-04-09T01:33:58.902Z,29.33
2023-04-09T01:36:28.022Z,28.38
2023-04-09T01:38:57.224Z,28.17
2023-04-09T01:41:27.127Z,27.67
2023-04-09T01:43:55.669Z,29.58
2023-04-09T01:46:25.016Z,28.50
2023-04-09T01:48:52.751Z,29.48
2023-04-09T01:51:20.310Z,29.38
2023-04-09T01:53:48.355Z,29.02
2023-04-09T01:56:15.432Z,28.45
2023-04-09T01:58:45.294Z,29.83
2023-04-09T02:01:36.029Z,29.27
2023-04-09T02:04:14.440Z,29.52
2023-04-09T02:06:58.193Z,31.02
2023-04-09T02:09:32.517Z,31.50
2023-04-09T02:12:06.067Z,30.50
2023-04-09T02:14:35.626Z,29.58
2023-04-09T02:17:03.322Z,31.42
2023-04-09T02:19:44.686Z,30.58
2023-04-09T02:22:13.107Z,30.15
2023-04-09T02:24:40.715Z,32.13
2023-04-09T02:27:39.399Z,30.65
2023-04-09T02:30:07.532Z,31.80
2023-04-09T02:33:05.399Z,33.15
2023-04-09T02:35:33.279Z,33.05
2023-04-09T02:38:00.846Z,32.20
2023-04-09T02:40:28.306Z,32.08
2023-04-09T02:42:58.375Z,32.40
2023-04-09T02:45:25.739Z,32.95
2023-04-09T02:47:53.586Z,32.15
2023-04-09T02:50:21.018Z,32.80
2023-04-09T02:52:51.241Z,31.20
2023-04-09T02:55:20.189Z,32.55
2023-04-09T02:57:47.428Z,32.47
2023-04-09T03:00:14.784Z,32.25
2023-04-09T03:02:42.858Z,30.85
2023-04-09T03:05:10.288Z,33.30
2023-04-09T03:07:37.645Z,33.72
2023-04-09T03:10:05.456Z,32.90
2023-04-09T03:12:32.816Z,33.92
2023-04-09T03:15:00.357Z,32.90
2023-04-09T03:17:27.522Z,32.42
2023-04-09T03:19:54.746Z,32.85
2023-04-09T03:22:21.813Z,32.78
2023-04-09T03:24:52.544Z,32.03
2023-04-09T03:27:19.773Z,32.60
2023-04-09T03:29:55.897Z,30.67
2023-04-09T03:32:28.051Z,30.55
2023-04-09T03:34:55.948Z,32.13
2023-04-09T03:37:23.126Z,31.27
2023-04-09T03:39:50.242Z,31.63
2023-04-09T03:42:17.271Z,33.70
2023-04-09T03:44:47.681Z,32.50
2023-04-09T03:47:25.433Z,33.53
2023-04-09T03:49:56.168Z,33.20
2023-04-09T03:52:27.488Z,32.33
2023-04-09T03:55:04.747Z,32.30
2023-04-09T03:57:32.119Z,32.55
2023-04-09T03:59:59.358Z,32.42
2023-04-09T04:02:27.414Z,30.42
2023-04-09T04:05:02.290Z,32.90
2023-04-09T04:07:34.391Z,31.33
2023-04-09T04:10:12.615Z,31.63
2023-04-09T04:12:44.304Z,31.98
2023-04-09T04:15:16.670Z,31.80
2023-04-09T04:20:26.776Z,32.15
2023-04-09T04:23:00.229Z,29.17
2023-04-09T04:25:27.931Z,29.42
2023-04-09T04:27:56.257Z,29.17
2023-04-09T04:30:28.790Z,30.05
2023-04-09T04:35:36.370Z,28.52
2023-04-09T04:38:06.437Z,29.10
2023-04-09T04:40:36.860Z,28.45
2023-04-09T04:43:04.029Z,28.67
2023-04-09T04:45:31.076Z,27.15
2023-04-09T04:48:04.661Z,29.02
2023-04-09T04:50:32.908Z,29.10
2023-04-09T04:53:07.406Z,29.88
2023-04-09T04:55:42.992Z,29.00
2023-04-09T04:58:14.102Z,28.42
2023-04-09T05:00:46.563Z,28.63
2023-04-09T05:03:16.070Z,30.42
2023-04-09T05:06:10.897Z,27.73
2023-04-09T05:08:43.082Z,27.65
2023-04-09T05:11:15.248Z,28.30
2023-04-09T05:13:46.157Z,26.90
2023-04-09T05:16:18.601Z,27.30
2023-04-09T05:18:50.625Z,27.23
2023-04-09T05:21:18.016Z,27.08
2023-04-09T05:23:46.443Z,25.45
2023-04-09T05:26:14.055Z,26.23
2023-04-09T05:28:52.532Z,26.88
2023-04-09T05:31:22.154Z,26.88
2023-04-09T05:34:12.647Z,26.20
2023-04-09T05:36:47.053Z,25.90
2023-04-09T05:39:16.835Z,26.67
2023-04-09T05:41:46.532Z,26.58
2023-04-09T05:44:25.809Z,25.88
2023-04-09T05:46:59.895Z,26.55
2023-04-09T05:49:33.241Z,25.85
2023-04-09T05:52:02.657Z,26.05
2023-04-09T05:54:32.446Z,26.73
2023-04-09T05:56:59.601Z,26.13
2023-04-09T05:59:27.122Z,25.40
2023-04-09T06:01:54.339Z,25.90
2023-04-09T06:04:21.607Z,24.27
2023-04-09T06:06:49.536Z,26.15
2023-04-09T06:09:16.552Z,24.38
2023-04-09T06:11:43.829Z,25.50
2023-04-09T06:14:16.579Z,24.20
2023-04-09T06:16:43.723Z,25.08
2023-04-09T06:19:12.457Z,23.80
2023-04-09T06:21:40.897Z,25.27
2023-04-09T06:24:08.082Z,24.75
2023-04-09T06:26:35.330Z,24.35
2023-04-09T06:29:02.926Z,25.42
2023-04-09T06:31:30.053Z,26.05
2023-04-09T06:33:57.219Z,25.75
2023-04-09T06:36:24.611Z,27.23
2023-04-09T06:38:51.637Z,27.42
2023-04-09T06:41:22.072Z,27.15
2023-04-09T06:43:49.778Z,25.92
2023-04-09T06:46:20.197Z,28.08
2023-04-09T06:48:47.956Z,27.65
2023-04-09T06:51:15.238Z,26.67
2023-04-09T06:53:42.827Z,28.10
2023-04-09T06:56:09.898Z,29.45
2023-04-09T06:58:37.266Z,28.08
2023-04-09T07:01:04.654Z,27.23
2023-04-09T07:03:32.398Z,28.98
2023-04-09T07:05:59.499Z,28.38
2023-04-09T07:08:26.925Z,27.05
2023-04-09T07:10:54.027Z,28.42
2023-04-09T07:13:22.538Z,28.00
2023-04-09T07:15:49.664Z,29.10
2023-04-09T07:18:16.773Z,28.88
2023-04-09T07:20:50.034Z,28.48
2023-04-09T07:23:17.465Z,29.02
2023-04-09T07:25:44.722Z,29.98
2023-04-09T07:28:14.830Z,30.42
2023-04-09T07:30:42.167Z,28.60
2023-04-09T07:33:09.435Z,28.17
2023-04-09T07:35:36.681Z,29.55
2023-04-09T07:38:03.753Z,28.35
2023-04-09T07:40:30.832Z,28.23
2023-04-09T07:42:58.199Z,28.42
2023-04-09T07:45:25.750Z,30.08
2023-04-09T07:47:52.820Z,28.98
2023-04-09T07:50:20.054Z,26.88
2023-04-09T07:52:47.386Z,26.83
2023-04-09T07:55:14.596Z,28.27
2023-04-09T07:57:43.103Z,27.67
2023-04-09T08:00:11.032Z,28.70
2023-04-09T08:02:41.398Z,28.52
2023-04-09T08:05:10.206Z,25.00
2023-04-09T08:07:37.361Z,28.85
2023-04-09T08:10:06.355Z,29.17
2023-04-09T08:12:34.102Z,26.80
2023-04-09T08:15:03.689Z,24.73
2023-04-09T08:17:31.032Z,23.58
2023-04-09T08:19:58.593Z,22.85
2023-04-09T08:22:25.646Z,25.60
2023-04-09T08:24:53.293Z,26.58
2023-04-09T08:27:21.704Z,24.88
2023-04-09T08:29:48.749Z,26.02
2023-04-09T08:32:16.417Z,27.42
2023-04-09T08:34:43.482Z,24.98
2023-04-09T08:37:10.622Z,25.50
2023-04-09T08:39:37.604Z,22.40
2023-04-09T08:42:07.264Z,24.75
2023-04-09T08:44:34.458Z,24.00
2023-04-09T08:47:02.663Z,24.27
2023-04-09T08:49:29.758Z,24.70
2023-04-09T08:51:57.058Z,24.55
2023-04-09T08:54:26.740Z,23.95
2023-04-09T08:56:54.092Z,24.63
2023-04-09T08:59:21.244Z,24.05
2023-04-09T09:01:54.199Z,23.20
2023-04-09T09:04:22.150Z,23.58
2023-04-09T09:06:49.171Z,21.35
2023-04-09T09:09:18.911Z,21.50
2023-04-09T09:11:50.369Z,22.88
2023-04-09T09:14:19.923Z,24.80
2023-04-09T09:16:56.689Z,24.08
2023-04-09T09:19:26.597Z,23.80
2023-04-09T09:21:58.927Z,26.75
2023-04-09T09:27:00.082Z,26.50
2023-04-09T09:29:29.205Z,27.08
2023-04-09T09:31:57.729Z,24.48
2023-04-09T09:34:26.017Z,25.42
2023-04-09T09:36:53.293Z,24.67
2023-04-09T09:39:22.042Z,25.80
2023-04-09T09:42:07.955Z,26.73
2023-04-09T09:44:35.257Z,24.50
2023-04-09T09:47:04.701Z,25.30
2023-04-09T09:49:31.784Z,25.38
2023-04-09T09:52:03.198Z,24.65
2023-04-09T09:54:43.282Z,25.25
2023-04-09T09:57:14.471Z,24.63
2023-04-09T09:59:52.248Z,23.77
2023-04-09T10:02:22.845Z,24.02
2023-04-09T10:04:52.860Z,23.02
2023-04-09T10:07:24.355Z,24.38
2023-04-09T10:09:56.086Z,23.42
2023-04-09T10:12:25.431Z,24.42
2023-04-09T10:14:56.585Z,23.25
2023-04-09T10:17:23.899Z,23.92
2023-04-09T10:20:16.356Z,24.95
2023-04-09T10:22:49.863Z,23.40
2023-04-09T10:25:17.639Z,25.25
2023-04-09T10:28:01.103Z,25.30
2023-04-09T10:30:36.786Z,24.35
2023-04-09T10:33:22.027Z,25.05
2023-04-09T10:35:49.285Z,24.70
2023-04-09T10:38:16.280Z,23.50
2023-04-09T10:40:50.182Z,23.50
2023-04-09T10:43:23.273Z,23.63
2023-04-09T10:45:54.451Z,24.02
2023-04-09T10:48:22.400Z,23.65
2023-04-09T10:50:53.984Z,23.27
2023-04-09T10:53:26.077Z,21.75
2023-04-09T10:55:54.783Z,23.33
2023-04-09T10:58:22.001Z,25.55
2023-04-09T11:00:51.461Z,24.13
2023-04-09T11:03:22.631Z,21.88
2023-04-09T11:06:10.596Z,23.60
2023-04-09T11:08:38.736Z,24.08
2023-04-09T11:11:06.559Z,26.13
2023-04-09T11:13:34.614Z,22.85
2023-04-09T11:16:07.214Z,24.77
2023-04-09T11:18:37.197Z,22.70
2023-04-09T11:21:05.002Z,23.52
2023-04-09T11:23:33.566Z,23.38
2023-04-09T11:26:01.861Z,23.85
2023-04-09T11:28:29.143Z,23.83
2023-04-09T11:30:56.354Z,23.58
2023-04-09T11:33:23.607Z,22.35
2023-04-09T11:35:51.455Z,23.05
2023-04-09T11:38:18.502Z,21.95
2023-04-09T11:40:49.076Z,22.58
2023-04-09T11:43:17.877Z,23.40
2023-04-09T11:45:48.385Z,23.90
2023-04-09T11:48:18.743Z,22.70
2023-04-09T11:50:47.479Z,22.92
2023-04-09T11:53:20.036Z,22.80
2023-04-09T11:55:52.572Z,22.75
2023-04-09T11:58:26.588Z,23.02
2023-04-09T12:00:59.346Z,22.55
2023-04-09T12:03:30.903Z,23.35
2023-04-09T12:06:02.255Z,22.52
2023-04-09T12:08:31.235Z,20.67
2023-04-09T12:11:12.784Z,20.45
2023-04-09T12:13:43.224Z,21.63
2023-04-09T12:16:14.657Z,21.67
2023-04-09T12:18:42.516Z,20.05
2023-04-09T12:21:09.707Z,20.73
2023-04-09T12:23:37.582Z,21.38
2023-04-09T12:26:05.297Z,20.52
2023-04-09T12:28:34.655Z,20.27
2023-04-09T12:31:03.560Z,21.63
2023-04-09T12:33:31.261Z,20.95
2023-04-09T12:35:58.474Z,21.42
2023-04-09T12:38:26.716Z,20.08
2023-04-09T12:40:53.880Z,18.67
2023-04-09T12:43:20.945Z,20.10
2023-04-09T12:45:52.876Z,20.38
2023-04-09T12:48:20.103Z,20.17
2023-04-09T12:50:47.166Z,19.63
2023-04-09T12:53:26.688Z,20.08
2023-04-09T12:55:55.051Z,19.80
2023-04-09T12:58:22.111Z,19.67
2023-04-09T13:00:49.793Z,19.52
2023-04-09T13:03:17.142Z,17.75
2023-04-09T13:05:47.763Z,17.88
2023-04-09T13:08:14.949Z,17.48
2023-04-09T13:10:42.570Z,17.80
2023-04-09T13:13:13.590Z,17.20
2023-04-09T13:15:47.672Z,15.88
2023-04-09T13:18:14.708Z,16.23
2023-04-09T13:20:42.148Z,15.88
2023-04-09T13:23:09.294Z,15.52
2023-04-09T13:25:36.278Z,17.02
2023-04-09T13:28:03.710Z,17.23
2023-04-09T13:30:30.940Z,16.02
2023-04-09T13:32:58.115Z,16.40
2023-04-09T13:35:25.143Z,16.77
2023-04-09T13:37:52.417Z,18.85
2023-04-09T13:40:19.539Z,18.63
2023-04-09T13:42:46.504Z,17.65
2023-04-09T13:45:13.504Z,17.15
2023-04-09T13:47:41.252Z,16.20
2023-04-09T13:50:10.369Z,17.42
2023-04-09T13:52:37.526Z,16.05
2023-04-09T13:55:05.335Z,18.42
2023-04-09T13:57:33.146Z,17.83
2023-04-09T14:00:04.170Z,16.40
2023-04-09T14:02:32.853Z,18.80
2023-04-09T14:05:00.388Z,18.33
2023-04-09T14:07:27.538Z,18.15
2023-04-09T14:09:54.604Z,17.35
2023-04-09T14:12:31.138Z,17.67
2023-04-09T14:15:01.255Z,16.38
2023-04-09T14:17:28.393Z,15.30
2023-04-09T14:19:55.460Z,16.05
2023-04-09T14:22:22.717Z,16.98
2023-04-09T14:24:52.359Z,16.25
2023-04-09T14:27:19.715Z,15.48
2023-04-09T14:29:46.710Z,15.13
2023-04-09T14:32:16.298Z,15.48
2023-04-09T14:34:43.253Z,14.63
2023-04-09T14:37:11.620Z,15.73
2023-04-09T14:39:41.631Z,15.23
2023-04-09T14:42:08.971Z,14.75
2023-04-09T14:44:36.193Z,15.10
2023-04-09T14:47:09.716Z,14.68
2023-04-09T14:49:36.886Z,14.80
2023-04-09T14:52:03.916Z,14.93
2023-04-09T14:54:32.283Z,14.80
2023-04-09T14:56:59.435Z,14.10
2023-04-09T14:59:26.965Z,14.73
2023-04-09T15:01:54.147Z,14.45
2023-04-09T15:04:22.159Z,13.25
2023-04-09T15:06:49.440Z,14.20
2023-04-09T15:09:17.270Z,13.02
2023-04-09T15:11:44.352Z,13.10
2023-04-09T15:14:11.541Z,12.45
2023-04-09T15:16:38.636Z,11.88
2023-04-09T15:19:05.964Z,9.68
2023-04-09T15:21:33.021Z,7.80
2023-04-09T15:24:00.471Z,7.90
2023-04-09T15:26:28.000Z,7.97
2023-04-09T15:29:08.537Z,9.32
2023-04-09T15:31:36.300Z,8.82
2023-04-09T15:34:05.443Z,8.38
2023-04-09T15:36:32.908Z,9.20
2023-04-09T15:38:59.987Z,9.98
2023-04-09T15:41:27.145Z,9.80
2023-04-09T15:43:54.256Z,8.90
2023-04-09T15:46:21.442Z,10.32
2023-04-09T15:48:48.621Z,9.80
2023-04-09T15:51:16.814Z,9.88
2023-04-09T15:53:43.910Z,9.50
2023-04-09T15:56:15.634Z,8.90
2023-04-09T15:58:43.532Z,9.13
2023-04-09T16:01:11.165Z,9.73
2023-04-09T16:03:44.796Z,9.95
2023-04-09T16:06:13.420Z,9.65
2023-04-09T16:08:40.593Z,9.73
2023-04-09T16:11:10.902Z,9.77
2023-04-09T16:13:38.172Z,9.95
2023-04-09T16:16:07.334Z,10.27
2023-04-09T16:18:34.775Z,12.70
2023-04-09T16:21:02.075Z,12.23
2023-04-09T16:23:30.678Z,11.52
2023-04-09T16:25:58.167Z,9.35
2023-04-09T16:28:26.560Z,12.65
2023-04-09T16:30:53.959Z,12.82
2023-04-09T16:33:21.006Z,13.35
2023-04-09T16:35:48.141Z,16.38
2023-04-09T16:38:15.629Z,18.88
2023-04-09T16:40:43.874Z,17.23
2023-04-09T16:43:11.507Z,14.70
2023-04-09T16:45:38.531Z,15.40
2023-04-09T16:48:11.026Z,18.40
2023-04-09T16:50:40.251Z,16.02
2023-04-09T16:53:10.886Z,15.80
2023-04-09T16:55:38.005Z,16.10
2023-04-09T16:58:05.165Z,16.63
2023-04-09T17:00:32.774Z,16.95
2023-04-09T17:03:00.336Z,15.75
2023-04-09T17:05:27.944Z,17.10
2023-04-09T17:07:55.435Z,16.42
2023-04-09T17:10:22.763Z,17.38
2023-04-09T17:12:50.960Z,15.93
2023-04-09T17:15:21.605Z,15.80
2023-04-09T17:17:51.268Z,16.67
2023-04-09T17:20:19.700Z,16.75
2023-04-09T17:22:46.951Z,16.55
2023-04-09T17:25:14.574Z,16.88
2023-04-09T17:27:43.921Z,17.20
2023-04-09T17:30:12.326Z,16.63
2023-04-09T17:32:40.026Z,17.60
2023-04-09T17:35:08.182Z,18.20
2023-04-09T17:37:35.743Z,16.77
2023-04-09T17:40:03.406Z,17.15
2023-04-09T17:42:31.172Z,16.00
2023-04-09T17:44:58.226Z,18.33
2023-04-09T17:47:26.010Z,18.25
2023-04-09T17:49:53.171Z,17.75
2023-04-09T17:52:20.678Z,17.38
2023-04-09T17:54:50.543Z,18.77
2023-04-09T17:57:20.828Z,18.98
2023-04-09T17:59:49.822Z,17.05
2023-04-09T18:02:17.603Z,18.35
2023-04-09T18:04:45.191Z,18.52
2023-04-09T18:07:12.590Z,19.90
2023-04-09T18:09:40.563Z,19.23
2023-04-09T18:12:07.813Z,21.73
2023-04-09T18:14:35.012Z,22.17
2023-04-09T18:17:02.338Z,22.70
2023-04-09T18:19:32.287Z,22.52
2023-04-09T18:21:59.726Z,26.33
2023-04-09T18:24:30.306Z,23.35
2023-04-09T18:26:58.315Z,24.27
2023-04-09T18:29:27.522Z,27.85
2023-04-09T18:31:56.644Z,28.73
2023-04-09T18:34:25.317Z,29.48
2023-04-09T18:36:54.096Z,29.80
2023-04-09T18:39:24.717Z,26.55
2023-04-09T18:41:51.994Z,27.42
2023-04-09T18:44:19.452Z,26.77
2023-04-09T18:46:52.485Z,25.60
2023-04-09T18:49:19.732Z,24.88
2023-04-09T18:51:47.319Z,25.65
2023-04-09T18:54:14.638Z,27.27
2023-04-09T18:56:41.622Z,28.30
2023-04-09T18:59:08.666Z,28.15
2023-04-09T19:01:35.774Z,28.80
2023-04-09T19:04:03.139Z,29.33
2023-04-09T19:06:30.416Z,30.58
2023-04-09T19:08:59.029Z,31.67
2023-04-09T19:11:26.471Z,30.50
2023-04-09T19:13:54.227Z,30.83
2023-04-09T19:16:21.748Z,33.55
2023-04-09T19:18:48.880Z,35.58
2023-04-09T19:21:17.850Z,33.88
2023-04-09T19:23:45.717Z,35.15
2023-04-09T19:26:12.895Z,34.75
2023-04-09T19:28:40.054Z,36.30
2023-04-09T19:31:08.573Z,36.42
2023-04-09T19:33:36.209Z,40.03
2023-04-09T19:36:10.560Z,42.42
2023-04-09T19:38:37.848Z,48.25
2023-04-09T19:41:05.509Z,44.50
2023-04-09T19:43:32.686Z,42.72
2023-04-09T19:46:03.989Z,41.97
2023-04-09T19:48:31.442Z,42.03
2023-04-09T19:50:58.497Z,40.50
2023-04-09T19:53:25.611Z,41.42
2023-04-09T19:55:52.865Z,40.17
2023-04-09T19:58:19.920Z,38.22
2023-04-09T20:00:47.039Z,39.88
2023-04-09T20:03:14.389Z,38.00
2023-04-09T20:05:41.504Z,40.22
2023-04-09T20:08:12.267Z,38.35
2023-04-09T20:10:42.731Z,38.22
2023-04-09T20:13:09.856Z,39.05
2023-04-09T20:15:37.247Z,41.08
2023-04-09T20:18:04.433Z,41.75
2023-04-09T20:20:31.899Z,41.33
2023-04-09T20:22:59.074Z,36.15
2023-04-09T20:25:26.220Z,38.22
2023-04-09T20:27:54.321Z,38.03
2023-04-09T20:30:24.465Z,39.28
2023-04-09T20:32:52.315Z,37.30
2023-04-09T20:35:19.646Z,37.40
2023-04-09T20:37:49.152Z,37.15
2023-04-09T20:40:16.660Z,37.47
2023-04-09T20:42:44.363Z,38.10
2023-04-09T20:45:11.685Z,38.58
2023-04-09T20:47:38.842Z,38.50
2023-04-09T20:50:06.909Z,37.30
2023-04-09T20:52:33.903Z,36.03
2023-04-09T20:55:01.095Z,36.25
2023-04-09T20:57:28.928Z,34.75
2023-04-09T20:59:56.074Z,33.28
2023-04-09T21:02:23.825Z,35.03
2023-04-09T21:04:51.420Z,34.50
2023-04-09T21:07:18.553Z,36.45
2023-04-09T21:09:46.840Z,34.10
2023-04-09T21:12:14.138Z,35.00
2023-04-09T21:14:41.641Z,34.08
2023-04-09T21:17:09.731Z,33.50
2023-04-09T21:19:37.107Z,32.38
2023-04-09T21:22:04.673Z,32.28
2023-04-09T21:24:34.199Z,32.10
2023-04-09T21:27:01.894Z,34.05
2023-04-09T21:29:29.204Z,34.92
2023-04-09T21:31:56.677Z,32.75
2023-04-09T21:34:24.014Z,34.58
2023-04-09T21:36:51.302Z,33.55
2023-04-09T21:39:18.623Z,31.77
2023-04-09T21:41:45.924Z,32.65
2023-04-09T21:44:13.455Z,33.30
2023-04-09T21:46:41.902Z,31.50
2023-04-09T21:49:09.059Z,34.13
2023-04-09T21:51:36.493Z,34.40
2023-04-09T21:54:08.990Z,33.13
2023-04-09T21:56:37.463Z,32.30
2023-04-09T21:59:05.552Z,28.13
2023-04-09T22:01:34.978Z,30.55
2023-04-09T22:04:02.481Z,29.23
2023-04-09T22:06:30.063Z,30.55
2023-04-09T22:08:58.220Z,28.60
2023-04-09T22:11:28.002Z,30.17
2023-04-09T22:13:58.350Z,30.23
2023-04-09T22:16:26.381Z,31.45
2023-04-09T22:18:54.473Z,27.67
2023-04-09T22:21:22.445Z,26.25
2023-04-09T22:23:50.186Z,27.67
2023-04-09T22:26:17.417Z,27.15
2023-04-09T22:28:44.500Z,28.02
2023-04-09T22:31:11.540Z,28.83
2023-04-09T22:33:38.684Z,30.55
2023-04-09T22:36:06.594Z,38.47
2023-04-09T22:38:53.250Z,38.78
2023-04-09T22:41:23.249Z,37.30
2023-04-09T22:43:50.426Z,37.15
2023-04-09T22:46:17.400Z,34.72
2023-04-09T22:49:09.587Z,33.80
2023-04-09T22:51:36.854Z,34.75
2023-04-09T22:54:04.088Z,31.88
2023-04-09T22:56:32.600Z,33.05
2023-04-09T22:58:59.721Z,31.65
2023-04-09T23:01:29.144Z,28.05
2023-04-09T23:03:56.389Z,30.40
2023-04-09T23:06:25.732Z,29.30
2023-04-09T23:08:53.084Z,28.25
2023-04-09T23:11:21.616Z,27.95
2023-04-09T23:13:48.671Z,25.73
2023-04-09T23:16:15.882Z,25.45
2023-04-09T23:18:43.724Z,25.48
2023-04-09T23:21:11.751Z,25.45
2023-04-09T23:23:39.334Z,24.15
2023-04-09T23:26:06.984Z,24.15
2023-04-09T23:28:34.023Z,23.95
2023-04-09T23:31:01.325Z,27.15
2023-04-09T23:33:28.532Z,27.13
2023-04-09T23:35:55.624Z,27.02
2023-04-09T23:38:23.503Z,26.52
2023-04-09T23:40:50.538Z,26.02
2023-04-09T23:43:17.540Z,26.20
2023-04-09T23:45:44.802Z,27.10
2023-04-09T23:48:13.221Z,27.45
2023-04-09T23:50:41.636Z,26.23
2023-04-09T23:53:09.040Z,26.27
2023-04-09T23:55:38.509Z,26.65
2023-04-09T23:58:05.660Z,27.20
